sensor_id;sensor_type;location;lat;lon;timestamp;temperature;humidity
11650;DHT22;5881;48.522;7.682;2023-03-16T00:00:47;1.50;99.90
11650;DHT22;5881;48.522;7.682;2023-03-16T00:03:13;1.50;99.90
11650;DHT22;5881;48.522;7.682;2023-03-16T00:05:47;1.40;99.90
11650;DHT22;5881;48.522;7.682;2023-03-16T00:08:14;1.30;99.90
11650;DHT22;5881;48.522;7.682;2023-03-16T00:10:40;1.30;99.90
11650;DHT22;5881;48.522;7.682;2023-03-16T00:13:17;1.30;99.90
11650;DHT22;5881;48.522;7.682;2023-03-16T00:15:50;1.40;99.90
11650;DHT22;5881;48.522;7.682;2023-03-16T00:18:16;1.40;99.90
11650;DHT22;5881;48.522;7.682;2023-03-16T00:20:42;1.30;99.90
11650;DHT22;5881;48.522;7.682;2023-03-16T00:23:07;1.30;99.90
11650;DHT22;5881;48.522;7.682;2023-03-16T00:25:33;1.30;99.90
11650;DHT22;5881;48.522;7.682;2023-03-16T00:27:59;1.20;99.90
11650;DHT22;5881;48.522;7.682;2023-03-16T00:30:29;1.20;99.90
11650;DHT22;5881;48.522;7.682;2023-03-16T00:32:55;1.30;99.90
11650;DHT22;5881;48.522;7.682;2023-03-16T00:35:20;1.30;99.90
11650;DHT22;5881;48.522;7.682;2023-03-16T00:37:46;1.40;99.90
11650;DHT22;5881;48.522;7.682;2023-03-16T00:40:12;1.30;99.90
11650;DHT22;5881;48.522;7.682;2023-03-16T00:42:38;1.40;99.90
11650;DHT22;5881;48.522;7.682;2023-03-16T00:45:04;1.40;99.90
11650;DHT22;5881;48.522;7.682;2023-03-16T00:47:31;1.40;99.90
11650;DHT22;5881;48.522;7.682;2023-03-16T00:49:58;1.40;99.90
11650;DHT22;5881;48.522;7.682;2023-03-16T00:52:25;1.40;99.90
11650;DHT22;5881;48.522;7.682;2023-03-16T00:54:52;1.40;99.90
11650;DHT22;5881;48.522;7.682;2023-03-16T00:57:18;1.40;99.90
11650;DHT22;5881;48.522;7.682;2023-03-16T00:59:45;1.50;99.90
11650;DHT22;5881;48.522;7.682;2023-03-16T01:02:11;1.60;99.90
11650;DHT22;5881;48.522;7.682;2023-03-16T01:04:37;1.60;99.90
11650;DHT22;5881;48.522;7.682;2023-03-16T01:07:05;1.70;99.90
11650;DHT22;5881;48.522;7.682;2023-03-16T01:09:32;1.60;99.90
11650;DHT22;5881;48.522;7.682;2023-03-16T01:12:05;1.40;99.90
11650;DHT22;5881;48.522;7.682;2023-03-16T01:14:33;1.30;99.90
11650;DHT22;5881;48.522;7.682;2023-03-16T01:17:00;1.10;99.90
11650;DHT22;5881;48.522;7.682;2023-03-16T01:19:26;1.20;99.90
11650;DHT22;5881;48.522;7.682;2023-03-16T01:21:52;1.10;99.90
11650;DHT22;5881;48.522;7.682;2023-03-16T01:24:18;1.10;99.90
11650;DHT22;5881;48.522;7.682;2023-03-16T01:26:44;1.10;99.90
11650;DHT22;5881;48.522;7.682;2023-03-16T01:29:10;1.00;99.90
11650;DHT22;5881;48.522;7.682;2023-03-16T01:31:37;1.10;99.90
11650;DHT22;5881;48.522;7.682;2023-03-16T01:34:02;1.20;99.90
11650;DHT22;5881;48.522;7.682;2023-03-16T01:36:28;1.30;99.90
11650;DHT22;5881;48.522;7.682;2023-03-16T01:38:54;1.20;99.90
11650;DHT22;5881;48.522;7.682;2023-03-16T01:41:20;1.20;99.90
11650;DHT22;5881;48.522;7.682;2023-03-16T01:43:46;1.00;99.90
11650;DHT22;5881;48.522;7.682;2023-03-16T01:46:23;0.90;99.90
11650;DHT22;5881;48.522;7.682;2023-03-16T01:48:59;0.90;99.90
11650;DHT22;5881;48.522;7.682;2023-03-16T01:51:48;0.80;99.90
11650;DHT22;5881;48.522;7.682;2023-03-16T01:54:21;1.00;99.90
11650;DHT22;5881;48.522;7.682;2023-03-16T01:57:27;0.90;99.90
11650;DHT22;5881;48.522;7.682;2023-03-16T01:59:56;0.70;99.90
11650;DHT22;5881;48.522;7.682;2023-03-16T02:02:30;0.60;99.90
11650;DHT22;5881;48.522;7.682;2023-03-16T02:05:10;0.70;99.90
11650;DHT22;5881;48.522;7.682;2023-03-16T02:07:42;0.50;99.90
11650;DHT22;5881;48.522;7.682;2023-03-16T02:10:10;0.80;99.90
11650;DHT22;5881;48.522;7.682;2023-03-16T02:12:36;0.80;99.90
11650;DHT22;5881;48.522;7.682;2023-03-16T02:15:03;0.80;99.90
11650;DHT22;5881;48.522;7.682;2023-03-16T02:17:30;0.60;99.90
11650;DHT22;5881;48.522;7.682;2023-03-16T02:22:25;0.70;99.90
11650;DHT22;5881;48.522;7.682;2023-03-16T02:24:52;0.80;99.90
11650;DHT22;5881;48.522;7.682;2023-03-16T02:27:26;0.70;99.90
11650;DHT22;5881;48.522;7.682;2023-03-16T02:30:03;0.60;99.90
11650;DHT22;5881;48.522;7.682;2023-03-16T02:32:31;0.60;99.90
11650;DHT22;5881;48.522;7.682;2023-03-16T02:34:58;0.60;99.90
11650;DHT22;5881;48.522;7.682;2023-03-16T02:37:25;0.70;99.90
11650;DHT22;5881;48.522;7.682;2023-03-16T02:39:50;0.60;99.90
11650;DHT22;5881;48.522;7.682;2023-03-16T02:42:19;0.50;99.90
11650;DHT22;5881;48.522;7.682;2023-03-16T02:44:49;0.50;99.90
11650;DHT22;5881;48.522;7.682;2023-03-16T02:47:35;0.90;99.90
11650;DHT22;5881;48.522;7.682;2023-03-16T02:50:01;0.60;99.90
11650;DHT22;5881;48.522;7.682;2023-03-16T02:52:32;0.70;99.90
11650;DHT22;5881;48.522;7.682;2023-03-16T02:54:58;0.60;99.90
11650;DHT22;5881;48.522;7.682;2023-03-16T02:57:24;0.60;99.90
11650;DHT22;5881;48.522;7.682;2023-03-16T02:59:49;0.80;99.90
11650;DHT22;5881;48.522;7.682;2023-03-16T03:02:16;0.80;99.90
11650;DHT22;5881;48.522;7.682;2023-03-16T03:04:42;0.80;99.90
11650;DHT22;5881;48.522;7.682;2023-03-16T03:07:11;0.80;99.90
11650;DHT22;5881;48.522;7.682;2023-03-16T03:09:41;0.70;99.90
11650;DHT22;5881;48.522;7.682;2023-03-16T03:12:08;0.60;99.90
11650;DHT22;5881;48.522;7.682;2023-03-16T03:14:34;0.80;99.90
11650;DHT22;5881;48.522;7.682;2023-03-16T03:17:06;0.60;99.90
11650;DHT22;5881;48.522;7.682;2023-03-16T03:19:35;0.60;99.90
11650;DHT22;5881;48.522;7.682;2023-03-16T03:22:03;0.60;99.90
11650;DHT22;5881;48.522;7.682;2023-03-16T03:24:32;0.50;99.90
11650;DHT22;5881;48.522;7.682;2023-03-16T03:26:58;0.40;99.90
11650;DHT22;5881;48.522;7.682;2023-03-16T03:29:31;0.40;99.90
11650;DHT22;5881;48.522;7.682;2023-03-16T03:32:00;0.30;99.90
11650;DHT22;5881;48.522;7.682;2023-03-16T03:34:26;0.30;99.90
11650;DHT22;5881;48.522;7.682;2023-03-16T03:36:53;0.20;99.90
11650;DHT22;5881;48.522;7.682;2023-03-16T03:39:19;0.10;99.90
11650;DHT22;5881;48.522;7.682;2023-03-16T03:41:44;0.10;99.90
11650;DHT22;5881;48.522;7.682;2023-03-16T03:44:10;0.10;99.90
11650;DHT22;5881;48.522;7.682;2023-03-16T03:46:36;0.20;99.90
11650;DHT22;5881;48.522;7.682;2023-03-16T03:49:01;0.00;99.90
11650;DHT22;5881;48.522;7.682;2023-03-16T03:51:30;0.00;99.90
11650;DHT22;5881;48.522;7.682;2023-03-16T03:53:57;0.00;99.90
11650;DHT22;5881;48.522;7.682;2023-03-16T03:56:22;0.10;99.90
11650;DHT22;5881;48.522;7.682;2023-03-16T03:58:48;0.00;99.90
11650;DHT22;5881;48.522;7.682;2023-03-16T04:01:14;0.00;99.90
11650;DHT22;5881;48.522;7.682;2023-03-16T04:03:39;0.10;99.90
11650;DHT22;5881;48.522;7.682;2023-03-16T04:06:05;0.00;99.90
11650;DHT22;5881;48.522;7.682;2023-03-16T04:08:33;0.20;99.90
11650;DHT22;5881;48.522;7.682;2023-03-16T04:10:58;0.20;99.90
11650;DHT22;5881;48.522;7.682;2023-03-16T04:13:24;0.00;99.90
11650;DHT22;5881;48.522;7.682;2023-03-16T04:15:58;0.20;99.90
11650;DHT22;5881;48.522;7.682;2023-03-16T04:18:27;0.10;99.90
11650;DHT22;5881;48.522;7.682;2023-03-16T04:20:53;0.10;99.90
11650;DHT22;5881;48.522;7.682;2023-03-16T04:23:19;-0.10;99.90
11650;DHT22;5881;48.522;7.682;2023-03-16T04:25:45;-0.10;99.90
11650;DHT22;5881;48.522;7.682;2023-03-16T04:28:11;0.00;99.90
11650;DHT22;5881;48.522;7.682;2023-03-16T04:30:37;-0.20;99.90
11650;DHT22;5881;48.522;7.682;2023-03-16T04:33:02;-0.30;99.90
11650;DHT22;5881;48.522;7.682;2023-03-16T04:35:29;-0.30;99.90
11650;DHT22;5881;48.522;7.682;2023-03-16T04:37:54;-0.20;99.90
11650;DHT22;5881;48.522;7.682;2023-03-16T04:40:20;-0.20;99.90
11650;DHT22;5881;48.522;7.682;2023-03-16T04:42:47;-0.10;99.90
11650;DHT22;5881;48.522;7.682;2023-03-16T04:45:13;-0.20;99.90
11650;DHT22;5881;48.522;7.682;2023-03-16T04:47:40;-0.20;99.90
11650;DHT22;5881;48.522;7.682;2023-03-16T04:50:06;-0.10;99.90
11650;DHT22;5881;48.522;7.682;2023-03-16T04:52:32;-0.20;99.90
11650;DHT22;5881;48.522;7.682;2023-03-16T04:54:58;-0.30;99.90
11650;DHT22;5881;48.522;7.682;2023-03-16T04:57:23;-0.30;99.90
11650;DHT22;5881;48.522;7.682;2023-03-16T04:59:49;0.00;99.90
11650;DHT22;5881;48.522;7.682;2023-03-16T05:02:15;0.20;99.90
11650;DHT22;5881;48.522;7.682;2023-03-16T05:04:42;0.10;99.90
11650;DHT22;5881;48.522;7.682;2023-03-16T05:07:08;0.00;99.90
11650;DHT22;5881;48.522;7.682;2023-03-16T05:09:33;0.00;99.90
11650;DHT22;5881;48.522;7.682;2023-03-16T05:11:59;-0.10;99.90
11650;DHT22;5881;48.522;7.682;2023-03-16T05:14:25;-0.10;99.90
11650;DHT22;5881;48.522;7.682;2023-03-16T05:16:50;-0.10;99.90
11650;DHT22;5881;48.522;7.682;2023-03-16T05:19:17;-0.10;99.90
11650;DHT22;5881;48.522;7.682;2023-03-16T05:21:42;-0.20;99.90
11650;DHT22;5881;48.522;7.682;2023-03-16T05:24:10;-0.20;99.90
11650;DHT22;5881;48.522;7.682;2023-03-16T05:26:36;-0.20;99.90
11650;DHT22;5881;48.522;7.682;2023-03-16T05:29:03;-0.30;99.90
11650;DHT22;5881;48.522;7.682;2023-03-16T05:31:29;-0.30;99.90
11650;DHT22;5881;48.522;7.682;2023-03-16T05:33:57;-0.20;99.90
11650;DHT22;5881;48.522;7.682;2023-03-16T05:36:23;-0.20;99.90
11650;DHT22;5881;48.522;7.682;2023-03-16T05:38:49;-0.20;99.90
11650;DHT22;5881;48.522;7.682;2023-03-16T05:41:15;0.20;99.90
11650;DHT22;5881;48.522;7.682;2023-03-16T05:43:43;0.20;99.90
11650;DHT22;5881;48.522;7.682;2023-03-16T05:46:08;0.20;99.90
11650;DHT22;5881;48.522;7.682;2023-03-16T05:48:34;0.00;99.90
11650;DHT22;5881;48.522;7.682;2023-03-16T05:51:00;0.20;99.90
11650;DHT22;5881;48.522;7.682;2023-03-16T05:53:25;0.00;99.90
11650;DHT22;5881;48.522;7.682;2023-03-16T05:55:53;0.10;99.90
11650;DHT22;5881;48.522;7.682;2023-03-16T05:58:19;0.10;99.90
11650;DHT22;5881;48.522;7.682;2023-03-16T06:00:45;0.20;99.90
11650;DHT22;5881;48.522;7.682;2023-03-16T06:03:11;0.30;99.90
11650;DHT22;5881;48.522;7.682;2023-03-16T06:05:37;0.40;99.90
11650;DHT22;5881;48.522;7.682;2023-03-16T06:08:03;0.50;99.90
11650;DHT22;5881;48.522;7.682;2023-03-16T06:10:29;0.70;99.90
11650;DHT22;5881;48.522;7.682;2023-03-16T06:12:55;0.80;99.90
11650;DHT22;5881;48.522;7.682;2023-03-16T06:15:20;1.50;99.90
11650;DHT22;5881;48.522;7.682;2023-03-16T06:17:49;2.40;99.90
11650;DHT22;5881;48.522;7.682;2023-03-16T06:20:14;2.80;1.00
11650;DHT22;5881;48.522;7.682;2023-03-16T06:22:42;3.30;99.90
11650;DHT22;5881;48.522;7.682;2023-03-16T06:25:10;3.40;99.90
11650;DHT22;5881;48.522;7.682;2023-03-16T06:27:36;3.30;99.90
11650;DHT22;5881;48.522;7.682;2023-03-16T06:30:04;3.60;99.90
11650;DHT22;5881;48.522;7.682;2023-03-16T06:32:30;4.10;99.90
11650;DHT22;5881;48.522;7.682;2023-03-16T06:34:56;5.00;64.90
11650;DHT22;5881;48.522;7.682;2023-03-16T06:37:24;5.50;40.30
11650;DHT22;5881;48.522;7.682;2023-03-16T06:39:49;5.50;19.20
11650;DHT22;5881;48.522;7.682;2023-03-16T06:42:15;5.50;17.10
11650;DHT22;5881;48.522;7.682;2023-03-16T06:44:40;6.00;15.70
11650;DHT22;5881;48.522;7.682;2023-03-16T06:47:07;6.20;9.70
11650;DHT22;5881;48.522;7.682;2023-03-16T06:49:33;5.60;6.10
11650;DHT22;5881;48.522;7.682;2023-03-16T06:51:58;5.60;7.40
11650;DHT22;5881;48.522;7.682;2023-03-16T06:54:25;5.50;6.40
11650;DHT22;5881;48.522;7.682;2023-03-16T06:56:51;5.90;8.40
11650;DHT22;5881;48.522;7.682;2023-03-16T06:59:16;6.50;7.30
11650;DHT22;5881;48.522;7.682;2023-03-16T07:01:42;6.60;6.90
11650;DHT22;5881;48.522;7.682;2023-03-16T07:04:09;7.00;5.10
11650;DHT22;5881;48.522;7.682;2023-03-16T07:06:37;7.50;2.60
11650;DHT22;5881;48.522;7.682;2023-03-16T07:09:03;8.30;1.00
11650;DHT22;5881;48.522;7.682;2023-03-16T07:11:29;9.20;1.00
11650;DHT22;5881;48.522;7.682;2023-03-16T07:13:55;9.60;1.00
11650;DHT22;5881;48.522;7.682;2023-03-16T07:16:23;8.50;1.00
11650;DHT22;5881;48.522;7.682;2023-03-16T07:18:48;9.10;1.00
11650;DHT22;5881;48.522;7.682;2023-03-16T07:21:14;9.00;1.00
11650;DHT22;5881;48.522;7.682;2023-03-16T07:23:40;8.70;1.00
11650;DHT22;5881;48.522;7.682;2023-03-16T07:26:05;9.10;1.00
11650;DHT22;5881;48.522;7.682;2023-03-16T07:28:33;9.20;1.00
11650;DHT22;5881;48.522;7.682;2023-03-16T07:30:59;9.40;1.00
11650;DHT22;5881;48.522;7.682;2023-03-16T07:33:24;9.20;1.00
11650;DHT22;5881;48.522;7.682;2023-03-16T07:35:50;9.70;1.00
11650;DHT22;5881;48.522;7.682;2023-03-16T07:38:16;9.30;1.00
11650;DHT22;5881;48.522;7.682;2023-03-16T07:40:42;10.00;1.00
11650;DHT22;5881;48.522;7.682;2023-03-16T07:43:07;10.30;1.00
11650;DHT22;5881;48.522;7.682;2023-03-16T07:45:33;9.90;1.00
11650;DHT22;5881;48.522;7.682;2023-03-16T07:47:59;10.30;1.00
11650;DHT22;5881;48.522;7.682;2023-03-16T07:50:24;10.50;1.00
11650;DHT22;5881;48.522;7.682;2023-03-16T07:52:50;10.10;1.00
11650;DHT22;5881;48.522;7.682;2023-03-16T07:55:16;10.80;1.00
11650;DHT22;5881;48.522;7.682;2023-03-16T07:57:43;10.60;1.00
11650;DHT22;5881;48.522;7.682;2023-03-16T08:00:22;11.20;1.00
11650;DHT22;5881;48.522;7.682;2023-03-16T08:02:49;11.80;1.00
11650;DHT22;5881;48.522;7.682;2023-03-16T08:05:16;11.10;1.00
11650;DHT22;5881;48.522;7.682;2023-03-16T08:07:41;11.60;1.00
11650;DHT22;5881;48.522;7.682;2023-03-16T08:10:08;11.50;1.00
11650;DHT22;5881;48.522;7.682;2023-03-16T08:12:34;10.90;1.00
11650;DHT22;5881;48.522;7.682;2023-03-16T08:14:59;11.40;1.00
11650;DHT22;5881;48.522;7.682;2023-03-16T08:17:25;11.40;1.00
11650;DHT22;5881;48.522;7.682;2023-03-16T08:19:50;10.90;1.00
11650;DHT22;5881;48.522;7.682;2023-03-16T08:22:16;11.70;1.00
11650;DHT22;5881;48.522;7.682;2023-03-16T08:24:41;12.40;1.00
11650;DHT22;5881;48.522;7.682;2023-03-16T08:27:07;12.70;1.00
11650;DHT22;5881;48.522;7.682;2023-03-16T08:29:33;13.40;1.00
11650;DHT22;5881;48.522;7.682;2023-03-16T08:31:59;13.30;1.00
11650;DHT22;5881;48.522;7.682;2023-03-16T08:34:25;12.10;1.00
11650;DHT22;5881;48.522;7.682;2023-03-16T08:36:51;12.00;1.00
11650;DHT22;5881;48.522;7.682;2023-03-16T08:39:17;11.90;1.00
11650;DHT22;5881;48.522;7.682;2023-03-16T08:41:42;11.50;1.00
11650;DHT22;5881;48.522;7.682;2023-03-16T08:44:10;11.00;1.00
11650;DHT22;5881;48.522;7.682;2023-03-16T08:46:37;11.30;1.00
11650;DHT22;5881;48.522;7.682;2023-03-16T08:49:03;12.10;1.00
11650;DHT22;5881;48.522;7.682;2023-03-16T08:51:31;11.30;1.00
11650;DHT22;5881;48.522;7.682;2023-03-16T08:53:57;12.00;1.00
11650;DHT22;5881;48.522;7.682;2023-03-16T08:56:23;12.70;1.00
11650;DHT22;5881;48.522;7.682;2023-03-16T08:58:48;11.60;1.00
11650;DHT22;5881;48.522;7.682;2023-03-16T09:01:16;11.10;1.00
11650;DHT22;5881;48.522;7.682;2023-03-16T09:03:43;10.30;1.00
11650;DHT22;5881;48.522;7.682;2023-03-16T09:06:12;10.70;1.00
11650;DHT22;5881;48.522;7.682;2023-03-16T09:08:39;12.20;1.00
11650;DHT22;5881;48.522;7.682;2023-03-16T09:11:08;13.20;1.00
11650;DHT22;5881;48.522;7.682;2023-03-16T09:13:36;14.90;1.00
11650;DHT22;5881;48.522;7.682;2023-03-16T09:16:03;13.50;1.00
11650;DHT22;5881;48.522;7.682;2023-03-16T09:18:30;14.20;1.00
11650;DHT22;5881;48.522;7.682;2023-03-16T09:20:58;14.10;1.00
11650;DHT22;5881;48.522;7.682;2023-03-16T09:23:24;13.80;1.00
11650;DHT22;5881;48.522;7.682;2023-03-16T09:25:50;14.80;1.00
11650;DHT22;5881;48.522;7.682;2023-03-16T09:28:16;15.20;1.00
11650;DHT22;5881;48.522;7.682;2023-03-16T09:30:42;14.40;1.00
11650;DHT22;5881;48.522;7.682;2023-03-16T09:33:08;15.30;1.00
11650;DHT22;5881;48.522;7.682;2023-03-16T09:35:34;14.80;1.00
11650;DHT22;5881;48.522;7.682;2023-03-16T09:38:01;15.60;1.00
11650;DHT22;5881;48.522;7.682;2023-03-16T09:40:28;15.90;1.00
11650;DHT22;5881;48.522;7.682;2023-03-16T09:48:17;16.40;1.00
11650;DHT22;5881;48.522;7.682;2023-03-16T09:50:46;16.10;1.00
11650;DHT22;5881;48.522;7.682;2023-03-16T09:53:26;16.80;1.00
11650;DHT22;5881;48.522;7.682;2023-03-16T09:56:07;15.90;1.00
11650;DHT22;5881;48.522;7.682;2023-03-16T09:58:33;16.40;1.00
11650;DHT22;5881;48.522;7.682;2023-03-16T10:06:12;17.00;1.00
11650;DHT22;5881;48.522;7.682;2023-03-16T10:08:51;16.20;1.00
11650;DHT22;5881;48.522;7.682;2023-03-16T10:16:39;17.60;1.00
11650;DHT22;5881;48.522;7.682;2023-03-16T10:19:15;18.50;1.00
11650;DHT22;5881;48.522;7.682;2023-03-16T10:21:42;19.10;1.00
11650;DHT22;5881;48.522;7.682;2023-03-16T10:24:18;18.00;1.00
11650;DHT22;5881;48.522;7.682;2023-03-16T10:26:53;18.80;1.00
11650;DHT22;5881;48.522;7.682;2023-03-16T10:29:20;19.20;1.00
11650;DHT22;5881;48.522;7.682;2023-03-16T10:31:46;18.40;1.00
11650;DHT22;5881;48.522;7.682;2023-03-16T10:34:13;18.60;1.00
11650;DHT22;5881;48.522;7.682;2023-03-16T10:36:43;17.90;1.00
11650;DHT22;5881;48.522;7.682;2023-03-16T10:39:13;17.20;1.00
11650;DHT22;5881;48.522;7.682;2023-03-16T10:41:46;17.40;1.00
11650;DHT22;5881;48.522;7.682;2023-03-16T10:44:25;17.10;1.00
11650;DHT22;5881;48.522;7.682;2023-03-16T10:47:02;17.30;1.00
11650;DHT22;5881;48.522;7.682;2023-03-16T10:49:41;16.50;1.00
11650;DHT22;5881;48.522;7.682;2023-03-16T10:52:17;16.80;1.00
11650;DHT22;5881;48.522;7.682;2023-03-16T10:54:54;16.20;1.00
11650;DHT22;5881;48.522;7.682;2023-03-16T10:57:30;16.00;1.00
11650;DHT22;5881;48.522;7.682;2023-03-16T11:00:28;17.40;1.00
11650;DHT22;5881;48.522;7.682;2023-03-16T11:02:57;16.80;1.00
11650;DHT22;5881;48.522;7.682;2023-03-16T11:08:00;18.30;1.00
11650;DHT22;5881;48.522;7.682;2023-03-16T11:10:31;18.70;1.00
11650;DHT22;5881;48.522;7.682;2023-03-16T11:13:18;19.40;1.00
11650;DHT22;5881;48.522;7.682;2023-03-16T11:16:04;19.20;1.00
11650;DHT22;5881;48.522;7.682;2023-03-16T11:18:46;16.80;1.00
11650;DHT22;5881;48.522;7.682;2023-03-16T11:24:04;17.70;1.00
11650;DHT22;5881;48.522;7.682;2023-03-16T11:26:37;17.30;1.00
11650;DHT22;5881;48.522;7.682;2023-03-16T11:29:17;18.40;1.00
11650;DHT22;5881;48.522;7.682;2023-03-16T11:31:52;16.80;1.00
11650;DHT22;5881;48.522;7.682;2023-03-16T11:34:26;17.60;1.00
11650;DHT22;5881;48.522;7.682;2023-03-16T11:36:54;17.30;1.00
11650;DHT22;5881;48.522;7.682;2023-03-16T11:42:11;16.70;1.00
11650;DHT22;5881;48.522;7.682;2023-03-16T11:53:55;17.90;1.00
11650;DHT22;5881;48.522;7.682;2023-03-16T11:56:40;16.90;1.00
11650;DHT22;5881;48.522;7.682;2023-03-16T11:59:40;16.60;1.00
11650;DHT22;5881;48.522;7.682;2023-03-16T12:11:54;14.60;1.00
11650;DHT22;5881;48.522;7.682;2023-03-16T12:14:36;15.00;1.00
11650;DHT22;5881;48.522;7.682;2023-03-16T12:17:08;14.50;1.00
11650;DHT22;5881;48.522;7.682;2023-03-16T12:19:52;15.00;1.00
11650;DHT22;5881;48.522;7.682;2023-03-16T12:22:21;15.20;1.00
11650;DHT22;5881;48.522;7.682;2023-03-16T12:24:48;15.00;1.00
11650;DHT22;5881;48.522;7.682;2023-03-16T12:27:23;14.90;1.00
11650;DHT22;5881;48.522;7.682;2023-03-16T12:30:18;14.10;1.00
11650;DHT22;5881;48.522;7.682;2023-03-16T12:33:10;14.90;1.00
11650;DHT22;5881;48.522;7.682;2023-03-16T12:46:15;14.60;1.00
11650;DHT22;5881;48.522;7.682;2023-03-16T12:48:46;14.40;1.00
11650;DHT22;5881;48.522;7.682;2023-03-16T12:51:13;14.30;1.00
11650;DHT22;5881;48.522;7.682;2023-03-16T12:53:41;13.80;1.00
11650;DHT22;5881;48.522;7.682;2023-03-16T12:56:10;14.20;1.00
11650;DHT22;5881;48.522;7.682;2023-03-16T12:58:42;14.20;1.00
11650;DHT22;5881;48.522;7.682;2023-03-16T13:01:10;14.40;1.00
11650;DHT22;5881;48.522;7.682;2023-03-16T13:03:37;15.20;1.00
11650;DHT22;5881;48.522;7.682;2023-03-16T13:06:03;15.10;1.00
11650;DHT22;5881;48.522;7.682;2023-03-16T13:08:41;14.50;1.00
11650;DHT22;5881;48.522;7.682;2023-03-16T13:11:10;14.40;1.00
11650;DHT22;5881;48.522;7.682;2023-03-16T13:16:27;14.10;1.00
11650;DHT22;5881;48.522;7.682;2023-03-16T13:18:53;13.60;1.00
11650;DHT22;5881;48.522;7.682;2023-03-16T13:21:39;13.90;1.00
11650;DHT22;5881;48.522;7.682;2023-03-16T13:24:24;14.30;1.00
11650;DHT22;5881;48.522;7.682;2023-03-16T13:26:57;14.20;1.00
11650;DHT22;5881;48.522;7.682;2023-03-16T13:29:31;14.50;1.00
11650;DHT22;5881;48.522;7.682;2023-03-16T13:31:59;14.30;1.00
11650;DHT22;5881;48.522;7.682;2023-03-16T13:34:43;14.00;1.00
11650;DHT22;5881;48.522;7.682;2023-03-16T13:37:13;14.20;1.00
11650;DHT22;5881;48.522;7.682;2023-03-16T13:39:39;14.10;1.00
11650;DHT22;5881;48.522;7.682;2023-03-16T13:42:15;13.90;1.00
11650;DHT22;5881;48.522;7.682;2023-03-16T13:44:42;13.80;1.00
11650;DHT22;5881;48.522;7.682;2023-03-16T13:47:16;13.70;1.00
11650;DHT22;5881;48.522;7.682;2023-03-16T13:49:53;13.70;1.00
11650;DHT22;5881;48.522;7.682;2023-03-16T13:54:54;13.80;1.00
11650;DHT22;5881;48.522;7.682;2023-03-16T13:57:23;13.60;1.00
11650;DHT22;5881;48.522;7.682;2023-03-16T13:59:49;13.70;1.00
11650;DHT22;5881;48.522;7.682;2023-03-16T14:02:19;13.70;1.00
11650;DHT22;5881;48.522;7.682;2023-03-16T14:04:46;13.80;1.00
11650;DHT22;5881;48.522;7.682;2023-03-16T14:07:18;13.80;1.00
11650;DHT22;5881;48.522;7.682;2023-03-16T14:09:44;13.90;1.00
11650;DHT22;5881;48.522;7.682;2023-03-16T14:12:17;13.80;1.00
11650;DHT22;5881;48.522;7.682;2023-03-16T14:14:46;13.70;1.00
11650;DHT22;5881;48.522;7.682;2023-03-16T14:17:19;13.70;1.00
11650;DHT22;5881;48.522;7.682;2023-03-16T14:22:29;13.60;1.00
11650;DHT22;5881;48.522;7.682;2023-03-16T14:24:57;13.70;1.00
11650;DHT22;5881;48.522;7.682;2023-03-16T14:30:21;13.70;1.00
11650;DHT22;5881;48.522;7.682;2023-03-16T14:33:01;13.70;1.00
11650;DHT22;5881;48.522;7.682;2023-03-16T14:35:40;13.50;1.00
11650;DHT22;5881;48.522;7.682;2023-03-16T14:38:32;13.50;1.00
11650;DHT22;5881;48.522;7.682;2023-03-16T14:41:09;13.50;1.00
11650;DHT22;5881;48.522;7.682;2023-03-16T14:43:58;13.70;1.00
11650;DHT22;5881;48.522;7.682;2023-03-16T14:46:37;13.70;1.00
11650;DHT22;5881;48.522;7.682;2023-03-16T14:51:45;13.90;1.00
11650;DHT22;5881;48.522;7.682;2023-03-16T14:54:13;13.80;1.00
11650;DHT22;5881;48.522;7.682;2023-03-16T14:56:39;13.90;1.00
11650;DHT22;5881;48.522;7.682;2023-03-16T14:59:04;14.00;1.00
11650;DHT22;5881;48.522;7.682;2023-03-16T15:01:31;14.00;1.00
11650;DHT22;5881;48.522;7.682;2023-03-16T15:03:58;14.10;1.00
11650;DHT22;5881;48.522;7.682;2023-03-16T15:06:23;14.10;1.00
11650;DHT22;5881;48.522;7.682;2023-03-16T15:08:49;13.90;1.00
11650;DHT22;5881;48.522;7.682;2023-03-16T15:11:15;13.80;1.00
11650;DHT22;5881;48.522;7.682;2023-03-16T15:13:46;13.80;1.00
11650;DHT22;5881;48.522;7.682;2023-03-16T15:16:13;13.90;1.00
11650;DHT22;5881;48.522;7.682;2023-03-16T15:18:39;13.80;1.00
11650;DHT22;5881;48.522;7.682;2023-03-16T15:21:13;13.70;1.00
11650;DHT22;5881;48.522;7.682;2023-03-16T15:23:41;13.80;1.00
11650;DHT22;5881;48.522;7.682;2023-03-16T15:26:12;13.70;1.00
11650;DHT22;5881;48.522;7.682;2023-03-16T15:28:38;13.70;1.00
11650;DHT22;5881;48.522;7.682;2023-03-16T15:31:04;13.70;1.00
11650;DHT22;5881;48.522;7.682;2023-03-16T15:33:30;13.80;1.00
11650;DHT22;5881;48.522;7.682;2023-03-16T15:35:57;13.70;1.00
11650;DHT22;5881;48.522;7.682;2023-03-16T15:38:24;13.80;1.00
11650;DHT22;5881;48.522;7.682;2023-03-16T15:40:51;13.70;1.00
11650;DHT22;5881;48.522;7.682;2023-03-16T15:43:19;13.50;1.00
11650;DHT22;5881;48.522;7.682;2023-03-16T15:45:46;13.70;1.00
11650;DHT22;5881;48.522;7.682;2023-03-16T15:48:12;13.70;1.00
11650;DHT22;5881;48.522;7.682;2023-03-16T15:50:40;13.70;1.00
11650;DHT22;5881;48.522;7.682;2023-03-16T15:53:11;13.70;1.00
11650;DHT22;5881;48.522;7.682;2023-03-16T15:55:45;13.60;1.00
11650;DHT22;5881;48.522;7.682;2023-03-16T15:58:18;13.60;1.00
11650;DHT22;5881;48.522;7.682;2023-03-16T16:00:46;13.50;1.00
11650;DHT22;5881;48.522;7.682;2023-03-16T16:03:13;13.40;1.00
11650;DHT22;5881;48.522;7.682;2023-03-16T16:05:39;13.50;1.00
11650;DHT22;5881;48.522;7.682;2023-03-16T16:08:05;13.40;1.00
11650;DHT22;5881;48.522;7.682;2023-03-16T16:10:31;13.40;1.00
11650;DHT22;5881;48.522;7.682;2023-03-16T16:12:57;13.40;1.00
11650;DHT22;5881;48.522;7.682;2023-03-16T16:15:24;13.40;1.00
11650;DHT22;5881;48.522;7.682;2023-03-16T16:17:52;13.40;1.00
11650;DHT22;5881;48.522;7.682;2023-03-16T16:20:25;13.40;1.00
11650;DHT22;5881;48.522;7.682;2023-03-16T16:22:52;13.30;1.00
11650;DHT22;5881;48.522;7.682;2023-03-16T16:25:20;13.20;1.00
11650;DHT22;5881;48.522;7.682;2023-03-16T16:27:47;13.20;1.00
11650;DHT22;5881;48.522;7.682;2023-03-16T16:30:26;13.20;1.00
11650;DHT22;5881;48.522;7.682;2023-03-16T16:32:53;13.10;1.00
11650;DHT22;5881;48.522;7.682;2023-03-16T16:35:21;13.10;1.00
11650;DHT22;5881;48.522;7.682;2023-03-16T16:37:48;13.00;1.00
11650;DHT22;5881;48.522;7.682;2023-03-16T16:40:16;13.00;1.00
11650;DHT22;5881;48.522;7.682;2023-03-16T16:42:43;12.90;1.00
11650;DHT22;5881;48.522;7.682;2023-03-16T16:45:21;12.90;1.00
11650;DHT22;5881;48.522;7.682;2023-03-16T16:47:52;12.80;1.00
11650;DHT22;5881;48.522;7.682;2023-03-16T16:50:24;12.90;1.00
11650;DHT22;5881;48.522;7.682;2023-03-16T16:52:51;12.80;1.00
11650;DHT22;5881;48.522;7.682;2023-03-16T16:55:18;12.80;1.00
11650;DHT22;5881;48.522;7.682;2023-03-16T16:57:45;12.70;1.00
11650;DHT22;5881;48.522;7.682;2023-03-16T17:00:23;12.70;1.00
11650;DHT22;5881;48.522;7.682;2023-03-16T17:02:53;12.60;1.00
11650;DHT22;5881;48.522;7.682;2023-03-16T17:05:26;12.50;1.00
11650;DHT22;5881;48.522;7.682;2023-03-16T17:07:53;12.60;1.00
11650;DHT22;5881;48.522;7.682;2023-03-16T17:10:26;12.40;1.00
11650;DHT22;5881;48.522;7.682;2023-03-16T17:12:55;12.30;1.00
11650;DHT22;5881;48.522;7.682;2023-03-16T17:17:51;12.20;1.00
11650;DHT22;5881;48.522;7.682;2023-03-16T17:20:20;12.10;1.00
11650;DHT22;5881;48.522;7.682;2023-03-16T17:22:49;12.00;1.00
11650;DHT22;5881;48.522;7.682;2023-03-16T17:25:16;11.80;1.00